Time;durP1;ratioP1;P1;durP2;ratioP2;P2;SDS_P1;SDS_P2;PMS_P1;PMS_P2;Temp;Humidity;BMP_temperature;BMP_pressure;BME280_temperature;BME280_humidity;BME280_pressure;Samples;Min_cycle;Max_cycle;Signal;HPM_P1;HPM_P2
2023/07/05 00:01:26;;;;;;;0.40;0.40;;;16.50;99.90;;;;;;4434260;32;20512;-77
2023/07/05 00:03:51;;;;;;;0.60;0.60;;;16.40;99.90;;;;;;4432952;32;20156;-77
2023/07/05 00:06:17;;;;;;;2.20;0.80;;;16.40;99.90;;;;;;4431774;32;20175;-76
2023/07/05 00:08:43;;;;;;;1.17;0.57;;;16.50;99.90;;;;;;4434472;32;20066;-76
2023/07/05 00:11:10;;;;;;;0.40;0.40;;;16.50;99.90;;;;;;4433249;32;20644;-77
2023/07/05 00:13:37;;;;;;;3.50;1.17;;;16.40;99.90;;;;;;4433741;32;20103;-77
2023/07/05 00:16:03;;;;;;;0.30;0.30;;;16.40;99.90;;;;;;4432108;32;20367;-77
2023/07/05 00:18:29;;;;;;;0.35;0.35;;;16.40;99.90;;;;;;4433644;32;20073;-76
2023/07/05 00:21:03;;;;;;;0.30;0.30;;;16.40;99.90;;;;;;4432906;32;20072;-76
2023/07/05 00:23:31;;;;;;;0.40;0.40;;;16.30;99.90;;;;;;4433835;32;20536;-77
2023/07/05 00:25:57;;;;;;;1.12;0.60;;;16.40;99.90;;;;;;4433424;32;20096;-76
2023/07/05 00:28:23;;;;;;;1.10;0.80;;;16.40;99.90;;;;;;4432276;32;20514;-77
2023/07/05 00:30:49;;;;;;;0.50;0.50;;;16.40;99.90;;;;;;4433646;32;20164;-76
2023/07/05 00:33:16;;;;;;;0.75;0.75;;;16.40;99.90;;;;;;4432931;32;20564;-76
2023/07/05 00:35:50;;;;;;;3.20;0.60;;;16.20;99.90;;;;;;4432293;32;20167;-76
2023/07/05 00:38:17;;;;;;;1.50;1.20;;;16.10;99.90;;;;;;4432644;32;20068;-76
2023/07/05 00:40:43;;;;;;;0.88;0.50;;;16.10;99.90;;;;;;4435432;32;20061;-76
2023/07/05 00:43:10;;;;;;;1.10;0.98;;;16.10;99.90;;;;;;4431889;32;20143;-76
2023/07/05 00:45:43;;;;;;;1.08;0.65;;;16.10;99.90;;;;;;4431449;32;20088;-76
2023/07/05 00:48:14;;;;;;;0.35;0.35;;;16.10;99.90;;;;;;4432236;32;20074;-76
2023/07/05 00:50:42;;;;;;;5.03;1.55;;;16.10;99.90;;;;;;4433068;32;20085;-77
2023/07/05 00:53:09;;;;;;;0.40;0.40;;;16.00;99.90;;;;;;4433290;32;20073;-77
2023/07/05 00:55:36;;;;;;;0.30;0.30;;;16.00;99.90;;;;;;4432964;32;20444;-77
2023/07/05 00:58:03;;;;;;;0.60;0.60;;;16.10;99.90;;;;;;4432162;32;20081;-78
2023/07/05 01:00:30;;;;;;;1.17;1.08;;;16.20;99.90;;;;;;4430107;32;20470;-77
2023/07/05 01:02:58;;;;;;;0.37;0.37;;;16.10;99.90;;;;;;4431697;32;20122;-77
2023/07/05 01:05:24;;;;;;;0.37;0.37;;;16.10;99.90;;;;;;4433580;32;20073;-76
2023/07/05 01:07:50;;;;;;;0.45;0.45;;;16.10;99.90;;;;;;4434361;32;20073;-77
2023/07/05 01:10:18;;;;;;;0.37;0.37;;;16.00;99.90;;;;;;4434156;32;20419;-75
2023/07/05 01:12:51;;;;;;;0.43;0.43;;;16.10;99.90;;;;;;4432516;32;20496;-76
2023/07/05 01:15:20;;;;;;;0.50;0.50;;;16.10;99.90;;;;;;4430980;32;20077;-76
2023/07/05 01:17:58;;;;;;;2.20;0.60;;;16.00;99.90;;;;;;4432722;32;20331;-77
2023/07/05 01:20:29;;;;;;;0.68;0.68;;;16.00;99.90;;;;;;4432284;32;20085;-76
2023/07/05 01:23:30;;;;;;;0.40;0.40;;;16.00;99.90;;;;;;4429125;32;20484;-76
2023/07/05 01:26:24;;;;;;;0.40;0.40;;;16.00;99.90;;;;;;4420151;32;20589;-75
2023/07/05 01:29:29;;;;;;;0.62;0.62;;;16.10;99.90;;;;;;4426178;32;20210;-76
2023/07/05 01:32:10;;;;;;;0.40;0.40;;;16.20;99.90;;;;;;4432699;32;20069;-76
2023/07/05 01:34:46;;;;;;;0.50;0.50;;;16.20;99.90;;;;;;4430404;32;20106;-77
2023/07/05 01:37:27;;;;;;;0.60;0.60;;;16.20;99.90;;;;;;4431722;32;20411;-76
2023/07/05 01:39:52;;;;;;;;;;;16.30;99.90;;;;;;4431817;32;20625;-75
2023/07/05 01:42:23;;;;;;;0.60;0.50;;;16.30;99.90;;;;;;4433068;32;19948;-76
2023/07/05 01:44:50;;;;;;;;;;;16.20;99.90;;;;;;4433631;32;20069;-77
2023/07/05 01:47:21;;;;;;;0.37;0.37;;;16.20;99.90;;;;;;4433162;32;20398;-76
2023/07/05 01:50:10;;;;;;;0.65;0.65;;;16.30;99.90;;;;;;4434029;32;20064;-77
2023/07/05 01:52:51;;;;;;;1.48;0.73;;;16.20;99.90;;;;;;4433882;32;20129;-77
2023/07/05 01:55:24;;;;;;;3.83;1.02;;;16.20;99.90;;;;;;4435288;32;20412;-76
2023/07/05 01:58:07;;;;;;;0.60;0.60;;;16.30;99.90;;;;;;4433119;32;20053;-77
2023/07/05 02:00:33;;;;;;;0.98;0.55;;;16.30;99.90;;;;;;4432694;32;20094;-76
2023/07/05 02:03:04;;;;;;;0.45;0.45;;;16.30;99.90;;;;;;4430649;32;20083;-77
2023/07/05 02:05:31;;;;;;;1.20;0.50;;;16.30;99.90;;;;;;4438310;32;20084;-76
2023/07/05 02:07:59;;;;;;;2.72;0.47;;;16.30;99.90;;;;;;4436643;32;20136;-76
2023/07/05 02:10:24;;;;;;;0.37;0.37;;;16.20;99.90;;;;;;4437959;32;20475;-76
2023/07/05 02:12:52;;;;;;;3.03;0.88;;;16.20;99.90;;;;;;4437328;32;20150;-76
2023/07/05 02:15:18;;;;;;;0.40;0.40;;;16.20;99.90;;;;;;4434279;32;20116;-76
2023/07/05 02:17:45;;;;;;;0.57;0.57;;;16.20;99.90;;;;;;4436155;32;20501;-76
2023/07/05 02:20:11;;;;;;;0.55;0.50;;;16.10;99.90;;;;;;4434712;32;20462;-77
2023/07/05 02:22:37;;;;;;;5.40;0.80;;;16.20;99.90;;;;;;4437456;32;20426;-76
2023/07/05 02:25:03;;;;;;;0.40;0.40;;;16.10;99.90;;;;;;4434633;32;20533;-77
2023/07/05 02:27:29;;;;;;;0.55;0.55;;;16.20;99.90;;;;;;4435893;32;20076;-77
2023/07/05 02:29:55;;;;;;;0.77;0.77;;;16.20;99.90;;;;;;4436038;32;20076;-76
2023/07/05 02:32:21;;;;;;;0.50;0.50;;;16.20;99.90;;;;;;4434046;32;20540;-77
2023/07/05 02:34:47;;;;;;;2.83;1.08;;;16.20;99.90;;;;;;4430963;32;20081;-77
2023/07/05 02:37:13;;;;;;;0.47;0.47;;;16.20;99.90;;;;;;4437046;32;20085;-76
2023/07/05 02:39:39;;;;;;;0.52;0.52;;;16.20;99.90;;;;;;4437212;32;20127;-77
2023/07/05 02:42:05;;;;;;;0.50;0.50;;;16.10;99.90;;;;;;4439062;32;20414;-76
2023/07/05 02:44:31;;;;;;;0.50;0.50;;;16.10;99.90;;;;;;4436663;32;20085;-79
2023/07/05 02:46:57;;;;;;;0.50;0.50;;;16.10;99.90;;;;;;4432210;32;20074;-76
2023/07/05 02:49:23;;;;;;;0.50;0.50;;;16.10;99.90;;;;;;4435239;32;20516;-78
2023/07/05 02:51:48;;;;;;;0.22;0.22;;;16.20;99.90;;;;;;4435124;32;20104;-77
2023/07/05 02:54:14;;;;;;;0.82;0.68;;;16.20;99.90;;;;;;4436358;32;20403;-76
2023/07/05 02:56:39;;;;;;;0.37;0.37;;;16.20;99.90;;;;;;4437357;32;20084;-77
2023/07/05 02:59:05;;;;;;;0.75;0.70;;;16.10;99.90;;;;;;4437334;32;20122;-77
2023/07/05 03:01:32;;;;;;;0.77;0.70;;;16.10;99.90;;;;;;4435615;32;20116;-77
2023/07/05 03:03:58;;;;;;;3.70;1.42;;;16.10;99.90;;;;;;4434289;32;20437;-76
2023/07/05 03:06:23;;;;;;;0.75;0.40;;;16.10;99.90;;;;;;4437951;32;20223;-76
2023/07/05 03:08:49;;;;;;;0.32;0.32;;;16.00;99.90;;;;;;4437807;32;20093;-79
2023/07/05 03:11:14;;;;;;;0.30;0.30;;;16.10;99.90;;;;;;4436649;32;20120;-76
2023/07/05 03:13:42;;;;;;;0.50;0.50;;;16.10;99.90;;;;;;4433956;32;20098;-77
2023/07/05 03:16:07;;;;;;;2.45;1.30;;;16.00;99.90;;;;;;4435451;32;20093;-76
2023/07/05 03:18:34;;;;;;;0.37;0.35;;;16.00;99.90;;;;;;4436865;32;20482;-76
2023/07/05 03:21:00;;;;;;;0.50;0.50;;;16.00;99.90;;;;;;4436432;32;20110;-75
2023/07/05 03:23:25;;;;;;;0.65;0.65;;;16.00;99.90;;;;;;4435374;32;20084;-78
2023/07/05 03:26:08;;;;;;;1.12;0.73;;;16.00;99.90;;;;;;4433724;32;20425;-77
2023/07/05 03:28:35;;;;;;;0.40;0.40;;;16.00;99.90;;;;;;4433375;32;20080;-77
2023/07/05 03:31:03;;;;;;;0.57;0.47;;;16.00;99.90;;;;;;4432359;32;20070;-75
2023/07/05 03:33:30;;;;;;;0.40;0.40;;;16.00;99.90;;;;;;4433220;32;20084;-76
2023/07/05 03:35:57;;;;;;;1.37;0.45;;;16.10;99.90;;;;;;4431140;32;20117;-76
2023/07/05 03:38:25;;;;;;;2.47;0.50;;;16.10;99.90;;;;;;4434931;32;20097;-76
2023/07/05 03:41:10;;;;;;;0.40;0.40;;;16.10;99.90;;;;;;4433662;32;20070;-76
2023/07/05 03:43:37;;;;;;;0.95;0.55;;;16.20;99.90;;;;;;4433126;32;20081;-76
2023/07/05 03:46:05;;;;;;;1.27;0.75;;;16.10;99.90;;;;;;4431640;32;20128;-78
2023/07/05 03:48:34;;;;;;;1.00;0.82;;;16.20;99.90;;;;;;4430390;32;20077;-78
2023/07/05 03:50:59;;;;;;;0.40;0.40;;;16.20;99.90;;;;;;4432238;32;20086;-78
2023/07/05 03:53:25;;;;;;;2.67;0.90;;;16.20;99.90;;;;;;4433031;32;20541;-77
2023/07/05 03:55:51;;;;;;;5.85;1.52;;;16.20;99.90;;;;;;4431339;32;20073;-78
2023/07/05 03:58:17;;;;;;;0.70;0.70;;;16.30;99.90;;;;;;4431758;32;20065;-78
2023/07/05 04:00:42;;;;;;;0.40;0.40;;;16.30;99.90;;;;;;4432973;32;20061;-78
2023/07/05 04:03:08;;;;;;;1.15;0.75;;;16.30;99.90;;;;;;4430198;32;20082;-78
2023/07/05 04:05:34;;;;;;;0.40;0.40;;;16.30;99.90;;;;;;4431394;32;20101;-77
2023/07/05 04:07:59;;;;;;;0.50;0.50;;;16.30;99.90;;;;;;4432545;32;20089;-77
2023/07/05 04:10:25;;;;;;;1.67;0.75;;;16.40;99.90;;;;;;4433039;32;20105;-79
2023/07/05 04:12:50;;;;;;;0.30;0.30;;;16.40;99.90;;;;;;4431008;32;20144;-78
2023/07/05 04:15:16;;;;;;;1.27;1.02;;;16.40;99.90;;;;;;4429914;32;20419;-77
2023/07/05 04:17:42;;;;;;;0.37;0.37;;;16.40;99.90;;;;;;4430558;32;20065;-78
2023/07/05 04:20:08;;;;;;;0.40;0.40;;;16.50;99.90;;;;;;4431667;32;20089;-77
2023/07/05 04:22:39;;;;;;;4.55;1.23;;;16.50;99.90;;;;;;4426421;32;20066;-78
2023/07/05 04:25:04;;;;;;;;;;;16.60;99.90;;;;;;4430546;32;20081;-78
2023/07/05 04:27:30;;;;;;;2.65;0.85;;;16.50;99.90;;;;;;4430827;32;19952;-79
2023/07/05 04:29:55;;;;;;;2.50;0.60;;;16.50;99.90;;;;;;4430175;32;20513;-78
2023/07/05 04:32:21;;;;;;;0.60;0.60;;;16.60;99.90;;;;;;4429832;32;20154;-77
2023/07/05 04:34:46;;;;;;;2.53;1.15;;;16.60;99.90;;;;;;4429425;32;20282;-77
2023/07/05 04:37:12;;;;;;;0.98;0.82;;;16.60;99.90;;;;;;4431701;32;20431;-77
2023/07/05 04:39:38;;;;;;;0.82;0.77;;;16.60;99.90;;;;;;4432395;32;21338;-77
2023/07/05 04:42:04;;;;;;;0.20;0.20;;;16.70;99.90;;;;;;4428684;32;21120;-76
2023/07/05 04:44:29;;;;;;;0.50;0.50;;;16.80;99.90;;;;;;4430841;32;20455;-77
2023/07/05 04:46:55;;;;;;;0.40;0.40;;;16.80;99.90;;;;;;4429594;32;20129;-77
2023/07/05 04:49:20;;;;;;;0.30;0.30;;;16.90;99.90;;;;;;4432037;32;20205;-77
2023/07/05 04:51:46;;;;;;;0.32;0.32;;;16.90;99.90;;;;;;4430792;32;20118;-76
2023/07/05 04:54:12;;;;;;;0.40;0.40;;;17.00;99.90;;;;;;4430085;32;20392;-78
2023/07/05 04:56:38;;;;;;;0.30;0.30;;;17.10;99.90;;;;;;4428533;32;20492;-77
2023/07/05 04:59:03;;;;;;;6.53;0.55;;;17.20;99.90;;;;;;4429732;32;20135;-78
2023/07/05 05:01:29;;;;;;;5.65;1.80;;;17.20;99.90;;;;;;4426933;32;20085;-79
2023/07/05 05:03:54;;;;;;;0.40;0.40;;;17.20;99.90;;;;;;4430061;32;20159;-78
2023/07/05 05:06:20;;;;;;;0.60;0.60;;;17.20;99.90;;;;;;4427811;32;20086;-79
2023/07/05 05:08:45;;;;;;;0.88;0.82;;;17.20;99.90;;;;;;4434583;32;20112;-78
2023/07/05 05:11:12;;;;;;;0.50;0.50;;;17.20;99.90;;;;;;4433130;32;20528;-77
2023/07/05 05:13:37;;;;;;;0.40;0.40;;;17.30;99.90;;;;;;4432729;32;20556;-77
2023/07/05 05:16:03;;;;;;;1.87;0.80;;;17.40;99.90;;;;;;4432847;32;20113;-79
2023/07/05 05:18:31;;;;;;;1.25;0.82;;;17.50;99.90;;;;;;4422510;32;20060;-78
2023/07/05 05:20:59;;;;;;;3.00;0.55;;;17.60;99.90;;;;;;4429763;32;20073;-78
2023/07/05 05:23:26;;;;;;;0.43;0.43;;;17.70;99.90;;;;;;4431657;32;20464;-80
2023/07/05 05:25:53;;;;;;;0.60;0.60;;;17.80;99.90;;;;;;4427962;32;20829;-76
2023/07/05 05:28:19;;;;;;;0.20;0.20;;;17.80;99.90;;;;;;4421819;32;20590;-78
2023/07/05 05:30:46;;;;;;;2.65;1.50;;;17.90;99.90;;;;;;4418654;32;20073;-77
2023/07/05 05:33:14;;;;;;;0.52;0.40;;;17.90;99.90;;;;;;4419413;32;20069;-77
2023/07/05 05:35:48;;;;;;;0.43;0.43;;;18.10;99.90;;;;;;4429960;32;20149;-79
2023/07/05 05:38:17;;;;;;;0.82;0.82;;;18.10;99.90;;;;;;4426187;32;20104;-80
2023/07/05 05:40:46;;;;;;;1.17;1.08;;;18.20;99.90;;;;;;4429100;32;20896;-79
2023/07/05 05:43:12;;;;;;;0.40;0.40;;;18.20;99.90;;;;;;4429895;32;20825;-77
2023/07/05 05:45:37;;;;;;;1.25;0.85;;;18.30;99.90;;;;;;4431806;32;20073;-77
2023/07/05 05:48:03;;;;;;;0.77;0.77;;;18.30;99.90;;;;;;4433216;32;20596;-78
2023/07/05 05:50:30;;;;;;;0.65;0.57;;;18.40;99.90;;;;;;4430475;32;20097;-78
2023/07/05 05:52:56;;;;;;;1.50;0.55;;;18.40;99.90;;;;;;4431972;32;20081;-79
2023/07/05 05:55:22;;;;;;;0.90;0.50;;;18.40;99.90;;;;;;4430096;32;20066;-76
2023/07/05 05:57:48;;;;;;;0.35;0.35;;;18.40;99.90;;;;;;4431167;32;20065;-79
2023/07/05 06:00:15;;;;;;;0.40;0.40;;;18.40;99.90;;;;;;4428956;32;20220;-79
2023/07/05 06:02:41;;;;;;;0.43;0.43;;;18.50;99.90;;;;;;4426939;32;20592;-78
2023/07/05 06:05:08;;;;;;;1.45;0.95;;;18.50;99.90;;;;;;4419564;32;20108;-78
2023/07/05 06:07:33;;;;;;;1.73;0.73;;;18.50;99.90;;;;;;4430697;32;20180;-78
2023/07/05 06:09:59;;;;;;;0.62;0.60;;;18.50;99.90;;;;;;4432339;32;20142;-78
2023/07/05 06:12:25;;;;;;;2.05;1.12;;;18.60;99.90;;;;;;4431304;32;20102;-78
2023/07/05 06:14:52;;;;;;;0.30;0.30;;;18.60;99.90;;;;;;4427462;32;20124;-78
2023/07/05 06:17:17;;;;;;;0.50;0.50;;;18.70;99.90;;;;;;4433500;32;20216;-78
2023/07/05 06:19:43;;;;;;;0.45;0.45;;;18.70;99.90;;;;;;4431113;32;21391;-78
2023/07/05 06:22:09;;;;;;;0.30;0.30;;;18.70;99.90;;;;;;4428231;32;20181;-79
2023/07/05 06:24:34;;;;;;;0.62;0.55;;;18.70;99.90;;;;;;4432104;32;20497;-77
2023/07/05 06:27:00;;;;;;;0.68;0.68;;;18.80;99.90;;;;;;4429848;32;20085;-78
2023/07/05 06:29:27;;;;;;;1.17;0.90;;;18.80;99.90;;;;;;4431027;32;20108;-77
2023/07/05 06:31:52;;;;;;;1.37;0.50;;;18.90;99.90;;;;;;4429207;32;20086;-78
2023/07/05 06:34:18;;;;;;;1.65;0.65;;;18.90;99.90;;;;;;4431323;32;20147;-77
2023/07/05 06:36:43;;;;;;;1.08;0.65;;;18.90;99.90;;;;;;4433196;32;20088;-77
2023/07/05 06:39:09;;;;;;;0.30;0.30;;;19.00;99.90;;;;;;4431665;32;20089;-78
2023/07/05 06:41:34;;;;;;;3.47;1.10;;;19.10;99.90;;;;;;4434238;32;20142;-77
2023/07/05 06:44:00;;;;;;;1.20;0.65;;;19.10;99.90;;;;;;4431945;32;20066;-78
2023/07/05 06:46:25;;;;;;;8.07;0.80;;;19.20;99.90;;;;;;4431347;32;20097;-77
2023/07/05 06:48:51;;;;;;;0.77;0.77;;;19.30;99.90;;;;;;4434132;32;20445;-77
2023/07/05 06:51:17;;;;;;;0.88;0.80;;;19.50;99.90;;;;;;4427667;32;20093;-77
2023/07/05 06:53:43;;;;;;;40.45;1.70;;;19.60;99.90;;;;;;4431973;32;20925;-77
2023/07/05 06:56:09;;;;;;;0.80;0.80;;;19.70;99.90;;;;;;4429213;32;20081;-78
2023/07/05 06:58:36;;;;;;;0.93;0.60;;;19.80;99.90;;;;;;4434356;32;20081;-78
2023/07/05 07:01:03;;;;;;;1.95;0.82;;;19.90;99.90;;;;;;4435024;32;20080;-79
2023/07/05 07:03:29;;;;;;;2.25;0.52;;;19.90;99.90;;;;;;4433187;32;20152;-77
2023/07/05 07:05:56;;;;;;;3.45;0.57;;;20.00;99.90;;;;;;4429028;32;20108;-79
2023/07/05 07:08:23;;;;;;;0.37;0.37;;;20.00;99.90;;;;;;4427419;32;20199;-78
2023/07/05 07:10:49;;;;;;;0.80;0.80;;;20.10;99.90;;;;;;4430910;32;20503;-77
2023/07/05 07:13:14;;;;;;;3.00;1.42;;;20.10;99.90;;;;;;4433068;32;20116;-78
2023/07/05 07:15:41;;;;;;;0.50;0.50;;;20.10;99.90;;;;;;4434372;32;20088;-77
2023/07/05 07:18:07;;;;;;;2.85;1.02;;;20.20;99.90;;;;;;4435661;32;20612;-77
2023/07/05 07:20:33;;;;;;;0.60;0.60;;;20.40;99.90;;;;;;4433196;32;20080;-76
2023/07/05 07:22:59;;;;;;;0.95;0.70;;;20.50;99.90;;;;;;4432800;32;20288;-79
2023/07/05 07:25:26;;;;;;;0.75;0.65;;;20.70;99.90;;;;;;4435548;32;20200;-79
2023/07/05 07:27:52;;;;;;;2.08;1.27;;;20.80;99.90;;;;;;4432082;32;21729;-78
2023/07/05 07:30:18;;;;;;;0.80;0.57;;;20.90;99.90;;;;;;4431696;32;20065;-76
2023/07/05 07:32:45;;;;;;;0.50;0.50;;;20.90;99.90;;;;;;4433139;32;20093;-76
2023/07/05 07:35:11;;;;;;;1.20;0.75;;;21.10;99.90;;;;;;4429107;32;20100;-78
2023/07/05 07:37:36;;;;;;;0.50;0.50;;;21.20;99.90;;;;;;4432147;32;20579;-77
2023/07/05 07:40:04;;;;;;;1.20;0.95;;;21.20;99.90;;;;;;4431680;32;20088;-79
2023/07/05 07:42:30;;;;;;;1.33;0.80;;;21.20;99.90;;;;;;4434851;32;20077;-78
2023/07/05 07:44:56;;;;;;;4.37;1.60;;;21.20;99.90;;;;;;4431694;32;20155;-77
2023/07/05 07:47:22;;;;;;;1.77;0.88;;;21.20;99.90;;;;;;4430434;32;20120;-79
2023/07/05 07:49:49;;;;;;;1.40;0.88;;;21.10;99.90;;;;;;4431113;32;20557;-78
2023/07/05 07:52:17;;;;;;;4.00;0.77;;;21.10;99.90;;;;;;4431865;32;20096;-79
2023/07/05 07:54:43;;;;;;;1.65;0.93;;;21.10;99.90;;;;;;4429906;32;20076;-79
2023/07/05 07:57:08;;;;;;;0.62;0.62;;;21.20;99.90;;;;;;4431570;32;20092;-79
2023/07/05 07:59:35;;;;;;;1.08;0.82;;;21.20;99.90;;;;;;4433486;32;20081;-80
2023/07/05 08:02:02;;;;;;;1.85;1.23;;;21.20;99.90;;;;;;4430565;32;20438;-78
2023/07/05 08:04:28;;;;;;;0.32;0.32;;;21.40;99.90;;;;;;4424291;32;20319;-78
2023/07/05 08:06:54;;;;;;;0.90;0.57;;;21.40;99.90;;;;;;4429104;32;20235;-78
2023/07/05 08:09:22;;;;;;;2.65;1.67;;;21.60;99.90;;;;;;4431074;32;20080;-79
2023/07/05 08:11:48;;;;;;;0.57;0.57;;;21.60;99.90;;;;;;4427359;32;20065;-79
2023/07/05 08:14:17;;;;;;;3.72;0.68;;;21.50;99.90;;;;;;4426440;32;20463;-79
2023/07/05 08:16:43;;;;;;;1.60;0.73;;;21.40;99.90;;;;;;4430877;32;20089;-79
2023/07/05 08:19:09;;;;;;;0.60;0.60;;;21.30;99.90;;;;;;4430405;32;20081;-80
2023/07/05 08:21:36;;;;;;;1.58;0.77;;;21.30;99.90;;;;;;4434156;32;20517;-79
2023/07/05 08:24:04;;;;;;;0.95;0.68;;;21.30;99.90;;;;;;4429948;32;20509;-79
2023/07/05 08:26:30;;;;;;;1.45;0.80;;;21.40;99.90;;;;;;4426653;32;20097;-80
2023/07/05 08:28:57;;;;;;;0.95;0.57;;;21.40;99.90;;;;;;4434127;32;20086;-79
2023/07/05 08:31:23;;;;;;;3.58;0.90;;;21.30;99.90;;;;;;4426596;32;20074;-79
2023/07/05 08:33:49;;;;;;;1.27;0.70;;;21.30;99.90;;;;;;4432180;32;20374;-77
2023/07/05 08:36:18;;;;;;;0.68;0.47;;;21.40;99.90;;;;;;4432928;32;20109;-78
2023/07/05 08:38:48;;;;;;;2.85;0.90;;;21.40;99.90;;;;;;4429897;32;20080;-79
2023/07/05 08:41:43;;;;;;;0.62;0.60;;;21.50;99.90;;;;;;4431478;32;20076;-78
2023/07/05 08:44:12;;;;;;;8.52;1.50;;;21.60;99.90;;;;;;4434044;32;20511;-79
2023/07/05 08:46:39;;;;;;;2.90;0.55;;;21.60;99.90;;;;;;4426569;32;20382;-78
2023/07/05 08:49:19;;;;;;;1.92;0.68;;;21.70;99.90;;;;;;4436411;32;20092;-78
2023/07/05 08:51:45;;;;;;;1.07;0.97;;;21.60;99.90;;;;;;4426868;32;20077;-78
2023/07/05 08:54:13;;;;;;;1.10;0.60;;;21.70;99.90;;;;;;4430995;32;20098;-78
2023/07/05 08:56:44;;;;;;;2.30;1.15;;;21.60;99.90;;;;;;4431524;32;20089;-79
2023/07/05 08:59:19;;;;;;;1.10;1.02;;;21.70;99.90;;;;;;4432201;32;20174;-79
2023/07/05 09:01:45;;;;;;;3.10;0.85;;;21.70;99.90;;;;;;4429622;32;20143;-79
2023/07/05 09:04:17;;;;;;;3.50;0.95;;;21.80;99.90;;;;;;4432588;32;20525;-79
2023/07/05 09:06:54;;;;;;;1.23;0.77;;;21.80;99.90;;;;;;4430467;32;20057;-80
2023/07/05 09:09:48;;;;;;;1.00;0.68;;;21.80;99.90;;;;;;4435468;32;20100;-78
2023/07/05 09:12:38;;;;;;;0.73;0.62;;;21.80;99.90;;;;;;4430158;32;20833;-79
2023/07/05 09:15:23;;;;;;;0.37;0.37;;;21.70;99.90;;;;;;4429644;32;20134;-80
2023/07/05 09:18:11;;;;;;;0.50;0.50;;;21.70;99.90;;;;;;4433935;32;20560;-78
2023/07/05 09:21:17;;;;;;;0.90;0.60;;;21.60;99.90;;;;;;4429925;32;20576;-79
2023/07/05 09:23:51;;;;;;;1.02;1.00;;;21.50;99.90;;;;;;4420219;32;20085;-78
2023/07/05 09:26:25;;;;;;;2.05;0.73;;;21.60;99.90;;;;;;4434099;32;20081;-79
2023/07/05 09:29:02;;;;;;;0.68;0.68;;;21.50;99.90;;;;;;4433328;32;20084;-79
2023/07/05 09:31:27;;;;;;;0.32;0.32;;;21.50;99.90;;;;;;4432729;32;20447;-78
2023/07/05 09:34:21;;;;;;;0.50;0.50;;;21.60;99.90;;;;;;4433218;32;20105;-79
2023/07/05 09:36:48;;;;;;;0.50;0.50;;;21.60;99.90;;;;;;4433101;32;20128;-79
2023/07/05 09:39:38;;;;;;;2.08;0.60;;;21.70;99.90;;;;;;4433805;32;20073;-78
2023/07/05 09:42:11;;;;;;;0.50;0.50;;;21.70;99.90;;;;;;4430602;32;20400;-78
2023/07/05 09:44:36;;;;;;;0.35;0.35;;;21.70;99.90;;;;;;4432984;32;20304;-79
2023/07/05 09:47:03;;;;;;;0.30;0.30;;;21.70;99.90;;;;;;4437289;32;20422;-79
2023/07/05 09:49:29;;;;;;;3.25;0.65;;;21.70;99.90;;;;;;4437019;32;20069;-78
2023/07/05 09:51:55;;;;;;;2.37;0.80;;;21.80;99.90;;;;;;4435250;32;20691;-78
2023/07/05 09:54:26;;;;;;;0.60;0.60;;;22.00;99.90;;;;;;4437702;32;20085;-78
2023/07/05 09:56:56;;;;;;;1.55;0.75;;;22.00;99.90;;;;;;4435218;32;20143;-78
2023/07/05 09:59:22;;;;;;;2.30;0.55;;;22.10;99.90;;;;;;4440493;32;20108;-76
2023/07/05 10:01:53;;;;;;;0.65;0.65;;;22.20;99.90;;;;;;4452150;32;20082;-76
2023/07/05 10:04:26;;;;;;;0.32;0.32;;;22.20;99.90;;;;;;4448431;32;20092;-76
2023/07/05 10:06:53;;;;;;;0.70;0.60;;;22.30;99.90;;;;;;4425131;26;20078;-78
2023/07/05 10:09:21;;;;;;;2.22;0.60;;;22.40;99.90;;;;;;4395902;32;20112;-78
2023/07/05 10:11:51;;;;;;;0.30;0.30;;;22.40;99.90;;;;;;4393189;32;20083;-78
2023/07/05 10:14:20;;;;;;;2.60;1.40;;;22.50;99.90;;;;;;4393545;32;20102;-77
2023/07/05 10:16:53;;;;;;;0.20;0.20;;;22.40;99.90;;;;;;4393888;32;20245;-78
2023/07/05 10:19:39;;;;;;;0.52;0.52;;;22.40;99.90;;;;;;4392808;32;20118;-78
2023/07/05 10:22:15;;;;;;;0.40;0.40;;;22.50;99.90;;;;;;4390934;32;20066;-78
2023/07/05 10:24:45;;;;;;;0.85;0.77;;;22.50;99.90;;;;;;4389849;32;20085;-77
2023/07/05 10:27:36;;;;;;;0.43;0.43;;;22.80;99.90;;;;;;4390782;32;20094;-78
2023/07/05 10:30:20;;;;;;;0.20;0.20;;;23.10;99.90;;;;;;4391616;32;20093;-76
2023/07/05 10:33:06;;;;;;;0.25;0.25;;;23.50;99.90;;;;;;4392457;32;20114;-77
2023/07/05 10:35:33;;;;;;;0.30;0.30;;;23.90;99.90;;;;;;4391875;32;20097;-79
2023/07/05 10:37:59;;;;;;;0.90;0.50;;;24.20;99.90;;;;;;4392114;32;20082;-77
2023/07/05 10:40:26;;;;;;;0.47;0.40;;;24.10;99.90;;;;;;4393053;32;20067;-76
2023/07/05 10:42:55;;;;;;;1.08;0.70;;;23.80;99.90;;;;;;4391775;32;20234;-76
2023/07/05 10:45:22;;;;;;;0.20;0.20;;;23.60;99.90;;;;;;4383086;32;20635;-78
2023/07/05 10:47:53;;;;;;;0.50;0.50;;;23.50;99.90;;;;;;4373089;32;20535;-77
2023/07/05 10:50:37;;;;;;;0.45;0.45;;;23.30;99.90;;;;;;4377298;32;20095;-77
2023/07/05 10:53:11;;;;;;;0.20;0.20;;;23.10;99.90;;;;;;4373797;32;20549;-76
2023/07/05 10:55:50;;;;;;;0.20;0.20;;;23.00;99.90;;;;;;4374523;32;20097;-77
2023/07/05 10:58:20;;;;;;;0.80;0.50;;;22.80;99.90;;;;;;4369447;32;20085;-76
2023/07/05 11:00:56;;;;;;;0.37;0.37;;;22.70;99.90;;;;;;4375963;32;20558;-77
2023/07/05 11:03:32;;;;;;;0.28;0.28;;;22.60;99.90;;;;;;4379922;32;20133;-77
2023/07/05 11:06:02;;;;;;;0.30;0.30;;;22.50;99.90;;;;;;4377380;32;20101;-77
2023/07/05 11:08:31;;;;;;;0.40;0.40;;;22.40;99.90;;;;;;4379064;32;20091;-77
2023/07/05 11:11:01;;;;;;;0.40;0.40;;;22.30;99.90;;;;;;4377408;32;20362;-76
2023/07/05 11:13:28;;;;;;;0.47;0.47;;;22.30;99.90;;;;;;4374627;32;20091;-76
2023/07/05 11:15:54;;;;;;;1.90;0.68;;;22.10;99.90;;;;;;4371574;32;20093;-76
2023/07/05 11:18:22;;;;;;;0.80;0.57;;;22.20;99.90;;;;;;4372997;32;20661;-77
2023/07/05 11:20:55;;;;;;;0.30;0.30;;;22.50;99.90;;;;;;4372677;32;20066;-77
2023/07/05 11:23:42;;;;;;;0.20;0.20;;;22.80;99.90;;;;;;4379576;32;20095;-77
2023/07/05 11:26:11;;;;;;;1.45;0.82;;;23.30;99.90;;;;;;4372870;32;20550;-77
2023/07/05 11:28:41;;;;;;;1.75;0.85;;;23.60;99.90;;;;;;4378438;32;20087;-76
2023/07/05 11:31:08;;;;;;;0.22;0.22;;;23.70;99.90;;;;;;4378224;32;20731;-77
2023/07/05 11:33:35;;;;;;;0.25;0.25;;;23.60;99.90;;;;;;4376149;32;20082;-76
2023/07/05 11:36:24;;;;;;;0.32;0.32;;;23.60;99.90;;;;;;4372368;32;20601;-77
2023/07/05 11:38:58;;;;;;;0.68;0.68;;;23.50;99.90;;;;;;4374886;32;20082;-76
2023/07/05 11:41:28;;;;;;;0.80;0.52;;;23.40;99.90;;;;;;4375709;32;20078;-77
2023/07/05 11:44:00;;;;;;;0.20;0.20;;;23.40;99.90;;;;;;4375208;32;20090;-77
2023/07/05 11:46:45;;;;;;;0.75;0.75;;;23.40;99.90;;;;;;4375283;32;106381;-77
2023/07/05 11:49:25;;;;;;;0.20;0.20;;;23.50;99.90;;;;;;4375900;32;20172;-76
2023/07/05 11:51:57;;;;;;;0.50;0.50;;;23.50;99.90;;;;;;4375837;32;20078;-76
2023/07/05 11:54:45;;;;;;;0.40;0.40;;;23.50;99.90;;;;;;4376669;32;20086;-77
2023/07/05 11:57:14;;;;;;;0.80;0.50;;;23.70;99.90;;;;;;4377823;32;20102;-80
2023/07/05 11:59:48;;;;;;;0.65;0.45;;;23.80;99.90;;;;;;4377824;32;20147;-76
2023/07/05 12:02:46;;;;;;;0.37;0.20;;;23.90;99.90;;;;;;4374806;32;21267;-76
2023/07/05 12:05:17;;;;;;;0.15;0.15;;;24.00;99.90;;;;;;4374747;32;20147;-77
2023/07/05 12:07:44;;;;;;;1.05;0.73;;;23.90;99.90;;;;;;4377096;32;20075;-76
2023/07/05 12:10:18;;;;;;;0.10;0.10;;;23.90;99.90;;;;;;4377661;32;20787;-78
2023/07/05 12:12:44;;;;;;;0.13;0.13;;;24.10;99.90;;;;;;4371761;32;20515;-75
2023/07/05 12:15:11;;;;;;;1.00;0.62;;;24.20;99.90;;;;;;4376123;32;20083;-76
2023/07/05 12:17:38;;;;;;;0.13;0.13;;;24.20;99.90;;;;;;4374995;32;20098;-76
2023/07/05 12:20:07;;;;;;;1.02;0.30;;;24.10;99.90;;;;;;4377587;32;20099;-76
2023/07/05 12:22:33;;;;;;;4.93;0.93;;;24.00;99.90;;;;;;4377049;32;20078;-76
2023/07/05 12:24:58;;;;;;;0.65;0.60;;;23.90;99.90;;;;;;4376158;32;20070;-77
2023/07/05 12:27:29;;;;;;;0.43;0.43;;;24.00;99.90;;;;;;4376579;32;20148;-77
2023/07/05 12:29:57;;;;;;;0.20;0.20;;;24.00;99.90;;;;;;4375969;32;20091;-77
2023/07/05 12:32:26;;;;;;;0.20;0.20;;;23.90;99.90;;;;;;4379952;32;20083;-78
2023/07/05 12:35:12;;;;;;;0.30;0.30;;;24.00;99.90;;;;;;4379952;32;20166;-76
2023/07/05 12:37:38;;;;;;;0.10;0.10;;;23.90;99.90;;;;;;4376135;32;20119;-76
2023/07/05 12:40:18;;;;;;;0.10;0.10;;;24.00;99.90;;;;;;4377265;32;20577;-77
2023/07/05 12:42:46;;;;;;;0.68;0.30;;;24.10;99.90;;;;;;4377732;32;20142;-76
2023/07/05 12:45:16;;;;;;;0.20;0.20;;;23.90;99.90;;;;;;4379093;32;20094;-76
2023/07/05 12:47:42;;;;;;;0.20;0.20;;;23.80;99.90;;;;;;4373302;32;20459;-78
2023/07/05 12:50:09;;;;;;;0.10;0.10;;;23.80;99.90;;;;;;4375541;32;20103;-77
2023/07/05 12:52:35;;;;;;;0.20;0.20;;;23.90;99.90;;;;;;4377089;32;20562;-76
2023/07/05 12:55:00;;;;;;;0.20;0.20;;;24.30;99.90;;;;;;4376817;32;20073;-77
2023/07/05 12:57:30;;;;;;;0.40;0.40;;;24.50;99.90;;;;;;4374375;32;20091;-76
2023/07/05 12:59:56;;;;;;;3.00;0.30;;;24.50;99.90;;;;;;4375811;32;20173;-76